Time;durP1;ratioP1;P1;durP2;ratioP2;P2;SDS_P1;SDS_P2;PMS_P1;PMS_P2;Temp;Humidity;BMP_temperature;BMP_pressure;BME280_temperature;BME280_humidity;BME280_pressure;Samples;Min_cycle;Max_cycle;Signal;HPM_P1;HPM_P2
2021/08/15 00:01:52;;;;;;;33.85;13.50;;;;;;;14.03;100.00;99634.28;1675549;85;21025;-65
2021/08/15 00:04:19;;;;;;;34.10;14.30;;;;;;;14.05;100.00;99636.72;1675494;84;21118;-65
2021/08/15 00:06:47;;;;;;;25.17;12.80;;;;;;;14.07;100.00;99631.31;1675336;85;21420;-65
2021/08/15 00:09:14;;;;;;;26.23;11.10;;;;;;;14.07;100.00;99629.16;1675185;84;20904;-66
2021/08/15 00:11:40;;;;;;;17.15;11.85;;;;;;;14.08;100.00;99625.36;1675254;84;21357;-65
2021/08/15 00:14:07;;;;;;;21.85;12.98;;;;;;;14.10;100.00;99631.30;1655793;85;20954;-65
2021/08/15 00:16:37;;;;;;;18.55;11.28;;;;;;;14.13;100.00;99625.34;1675334;85;26783;-65
2021/08/15 00:19:05;;;;;;;20.85;12.60;;;;;;;14.08;100.00;99631.56;1675069;84;20974;-64
2021/08/15 00:21:33;;;;;;;23.10;11.18;;;;;;;14.06;100.00;99627.01;1675465;85;21337;-64
2021/08/15 00:24:00;;;;;;;15.98;10.65;;;;;;;14.03;100.00;99626.73;1675509;85;20934;-64
2021/08/15 00:26:27;;;;;;;19.70;12.55;;;;;;;14.01;100.00;99628.89;1675665;85;20886;-64
2021/08/15 00:28:54;;;;;;;18.35;11.93;;;;;;;14.00;100.00;99630.79;1675413;84;21154;-64
2021/08/15 00:31:21;;;;;;;18.95;11.20;;;;;;;13.98;100.00;99630.25;1675252;85;21519;-65
2021/08/15 00:33:47;;;;;;;17.60;11.50;;;;;;;13.92;100.00;99625.97;1675374;85;20957;-64
2021/08/15 00:36:13;;;;;;;19.40;11.55;;;;;;;13.87;100.00;99624.09;1675370;85;20925;-64
2021/08/15 00:38:40;;;;;;;17.80;10.93;;;;;;;13.86;100.00;99629.20;1675645;84;21345;-64
2021/08/15 00:41:08;;;;;;;18.27;10.88;;;;;;;13.90;100.00;99623.53;1675510;85;21404;-64
2021/08/15 00:43:35;;;;;;;18.17;11.15;;;;;;;13.92;100.00;99620.57;1675686;84;21388;-64
2021/08/15 00:46:09;;;;;;;16.75;10.55;;;;;;;13.92;100.00;99623.27;1675629;84;20981;-64
2021/08/15 00:48:36;;;;;;;23.32;11.33;;;;;;;13.92;100.00;99620.02;1675369;85;20890;-64
2021/08/15 00:51:04;;;;;;;17.45;10.85;;;;;;;14.00;100.00;99620.55;1675538;84;20969;-65
2021/08/15 00:53:36;;;;;;;17.27;10.90;;;;;;;14.02;100.00;99623.23;1675513;85;21723;-64
2021/08/15 00:56:06;;;;;;;18.07;11.00;;;;;;;14.04;100.00;99617.02;1675499;84;21412;-64
2021/08/15 00:58:33;;;;;;;18.85;11.05;;;;;;;14.04;100.00;99616.22;1675526;84;20973;-64
2021/08/15 01:01:01;;;;;;;13.60;10.38;;;;;;;13.99;100.00;99618.39;1675488;84;21479;-65
2021/08/15 01:03:29;;;;;;;12.68;10.10;;;;;;;13.91;100.00;99619.77;1675685;85;20874;-64
2021/08/15 01:05:57;;;;;;;15.98;11.20;;;;;;;13.86;100.00;99617.60;1675355;85;21111;-64
2021/08/15 01:08:23;;;;;;;16.97;10.72;;;;;;;13.85;100.00;99617.34;1675671;84;20945;-64
2021/08/15 01:10:51;;;;;;;22.27;11.28;;;;;;;13.83;100.00;99612.77;1675754;85;25235;-65
2021/08/15 01:13:19;;;;;;;17.00;10.10;;;;;;;13.82;100.00;99614.66;1675494;84;28100;-65
2021/08/15 01:15:48;;;;;;;14.18;10.68;;;;;;;13.82;100.00;99613.31;1675628;85;20921;-65
2021/08/15 01:18:23;;;;;;;15.98;10.50;;;;;;;13.85;100.00;99613.30;1675510;84;20886;-64
2021/08/15 01:20:58;;;;;;;21.85;10.93;;;;;;;13.84;100.00;99610.31;1675331;85;20874;-65
2021/08/15 01:23:24;;;;;;;15.85;9.88;;;;;;;13.82;100.00;99606.56;1675636;84;20953;-65
2021/08/15 01:25:51;;;;;;;24.63;11.03;;;;;;;13.85;100.00;99611.41;1675320;85;21008;-64
2021/08/15 01:28:19;;;;;;;22.42;10.63;;;;;;;13.87;100.00;99609.80;1675790;85;20882;-65
2021/08/15 01:30:46;;;;;;;16.73;10.65;;;;;;;13.89;100.00;99604.91;1675956;84;21103;-64
2021/08/15 01:33:26;;;;;;;21.77;11.83;;;;;;;13.89;100.00;99610.30;1675554;85;20996;-65
2021/08/15 01:35:53;;;;;;;15.83;10.88;;;;;;;13.87;100.00;99614.64;1675811;84;21004;-64
2021/08/15 01:38:21;;;;;;;17.30;11.65;;;;;;;13.83;100.00;99610.86;1675573;84;20929;-64
2021/08/15 01:40:48;;;;;;;16.10;10.88;;;;;;;13.83;100.00;99610.06;1675719;84;20906;-64
2021/08/15 01:43:14;;;;;;;14.28;9.48;;;;;;;13.84;100.00;99603.57;1675500;84;21134;-62
2021/08/15 01:45:42;;;;;;;16.32;10.90;;;;;;;13.82;100.00;99603.87;1675480;85;26725;-64
2021/08/15 01:48:09;;;;;;;17.15;10.50;;;;;;;13.78;100.00;99601.44;1675579;84;20984;-63
2021/08/15 01:50:36;;;;;;;21.80;11.57;;;;;;;13.73;100.00;99598.20;1675502;85;20973;-64
2021/08/15 01:53:11;;;;;;;19.17;10.32;;;;;;;13.72;100.00;99610.09;1675456;85;20973;-65
2021/08/15 01:55:39;;;;;;;17.15;11.48;;;;;;;13.67;100.00;99604.70;1675428;85;21071;-64
2021/08/15 01:58:07;;;;;;;21.55;11.40;;;;;;;13.66;100.00;99602.27;1675358;84;20914;-62
2021/08/15 02:00:35;;;;;;;15.13;10.35;;;;;;;13.63;100.00;99591.48;1675628;84;20925;-63
2021/08/15 02:03:02;;;;;;;17.85;10.88;;;;;;;13.63;100.00;99594.73;1675299;84;20859;-63
2021/08/15 02:05:29;;;;;;;21.80;11.23;;;;;;;13.63;100.00;99594.19;1656301;85;20923;-64
2021/08/15 02:07:56;;;;;;;17.55;10.95;;;;;;;13.65;100.00;99596.63;1675487;84;21789;-64
2021/08/15 02:10:25;;;;;;;15.70;10.78;;;;;;;13.66;100.00;99603.08;1675517;85;21378;-64
2021/08/15 02:12:55;;;;;;;15.53;11.57;;;;;;;13.66;100.00;99603.08;1675284;84;21008;-64
2021/08/15 02:15:22;;;;;;;19.80;10.70;;;;;;;13.65;100.00;99600.67;1679005;85;21373;-63
2021/08/15 02:17:50;;;;;;;16.60;11.35;;;;;;;13.67;100.00;99602.02;1675417;85;20965;-65
2021/08/15 02:20:19;;;;;;;17.62;10.70;;;;;;;13.68;100.00;99605.52;1675539;84;21432;-64
2021/08/15 02:22:46;;;;;;;15.68;10.90;;;;;;;13.69;100.00;99607.11;1675452;84;20962;-63
2021/08/15 02:25:16;;;;;;;22.55;11.18;;;;;;;13.67;100.00;99601.17;1675794;85;20945;-65
2021/08/15 02:27:43;;;;;;;18.05;11.95;;;;;;;13.66;100.00;99609.02;1675423;85;21005;-64
2021/08/15 02:30:12;;;;;;;22.27;11.18;;;;;;;13.64;100.00;99612.52;1675513;84;21401;-65
2021/08/15 02:32:39;;;;;;;19.10;11.60;;;;;;;13.60;100.00;99607.42;1675297;85;21405;-63
2021/08/15 02:35:08;;;;;;;;;;;;;;;13.58;100.00;99604.98;1677757;84;21440;-63
2021/08/15 02:37:37;;;;;;;19.00;10.55;;;;;;;13.56;100.00;99607.14;1675615;85;20113;-65
2021/08/15 02:40:07;;;;;;;16.37;10.85;;;;;;;13.57;100.00;99606.08;1675339;84;21460;-65
2021/08/15 02:42:36;;;;;;;16.80;10.28;;;;;;;13.57;100.00;99611.98;1675761;84;20941;-65
2021/08/15 02:45:06;;;;;;;21.27;10.68;;;;;;;13.57;100.00;99607.95;1675278;85;21402;-64
2021/08/15 02:47:34;;;;;;;30.80;11.60;;;;;;;13.59;100.00;99607.94;1675266;85;20933;-64
2021/08/15 02:50:01;;;;;;;46.05;13.62;;;;;;;13.62;100.00;99614.16;1675458;84;20886;-64
2021/08/15 02:52:27;;;;;;;32.60;12.63;;;;;;;13.63;100.00;99609.56;1675559;85;20926;-63
2021/08/15 02:54:54;;;;;;;32.55;11.75;;;;;;;13.62;100.00;99614.67;1675394;85;20973;-63
2021/08/15 02:57:20;;;;;;;29.98;12.25;;;;;;;13.59;100.00;99611.98;1675323;84;21126;-63
2021/08/15 02:59:49;;;;;;;30.92;12.45;;;;;;;13.56;100.00;99611.19;1675450;84;20842;-64
2021/08/15 03:02:17;;;;;;;22.75;11.48;;;;;;;13.54;100.00;99607.95;1675780;85;20925;-64
2021/08/15 03:04:45;;;;;;;24.10;11.28;;;;;;;13.56;100.00;99608.49;1675394;85;20917;-64
2021/08/15 03:07:13;;;;;;;29.90;11.40;;;;;;;13.61;100.00;99613.88;1675696;84;20866;-63
2021/08/15 03:09:42;;;;;;;15.10;10.85;;;;;;;13.64;100.00;99611.97;1675461;85;21174;-64
2021/08/15 03:12:10;;;;;;;21.15;10.45;;;;;;;13.68;100.00;99613.05;1675309;84;20910;-65
2021/08/15 03:14:38;;;;;;;;;;;;;;;13.73;100.00;99607.65;1677798;84;20882;-64
2021/08/15 03:17:06;;;;;;;22.80;12.33;;;;;;;13.79;100.00;99605.77;1675660;84;20398;-64
2021/08/15 03:19:35;;;;;;;15.68;11.70;;;;;;;13.83;100.00;99608.71;1675475;85;21018;-63
2021/08/15 03:22:03;;;;;;;14.10;10.90;;;;;;;13.86;100.00;99608.16;1675634;85;21105;-64
2021/08/15 03:24:29;;;;;;;23.45;11.12;;;;;;;13.89;100.00;99603.04;1675430;85;21431;-63
2021/08/15 03:26:57;;;;;;;27.00;13.25;;;;;;;13.94;100.00;99598.97;1675514;84;20914;-63
2021/08/15 03:29:25;;;;;;;17.87;12.53;;;;;;;14.01;100.00;99599.20;1675211;84;20929;-64
2021/08/15 03:31:51;;;;;;;20.97;13.80;;;;;;;14.06;100.00;99601.37;1675377;85;21396;-63
2021/08/15 03:34:21;;;;;;;20.70;12.53;;;;;;;14.11;100.00;99603.22;1675428;85;21114;-63
2021/08/15 03:36:48;;;;;;;24.00;14.73;;;;;;;14.17;100.00;99598.63;1675418;84;20869;-64
2021/08/15 03:39:15;;;;;;;21.12;13.75;;;;;;;14.23;100.00;99598.30;1675393;85;21313;-64
2021/08/15 03:41:43;;;;;;;20.12;12.93;;;;;;;14.29;100.00;99598.56;1675453;85;26142;-63
2021/08/15 03:44:09;;;;;;;21.50;12.03;;;;;;;14.37;100.00;99602.02;1675445;85;20863;-62
2021/08/15 03:46:36;;;;;;;22.58;12.53;;;;;;;14.45;100.00;99603.88;1675316;85;21105;-63
2021/08/15 03:49:03;;;;;;;28.75;12.47;;;;;;;14.52;100.00;99601.69;1675399;85;20926;-63
2021/08/15 03:51:29;;;;;;;23.05;11.40;;;;;;;14.59;100.00;99596.82;1675305;84;20973;-63
2021/08/15 03:53:56;;;;;;;30.02;12.93;;;;;;;14.67;100.00;99594.87;1674698;84;20863;-63
2021/08/15 03:56:23;;;;;;;17.75;11.35;;;;;;;14.75;100.00;99592.95;1675362;84;21044;-64
2021/08/15 03:58:50;;;;;;;15.15;10.90;;;;;;;14.84;100.00;99589.09;1678802;85;21129;-63
2021/08/15 04:01:18;;;;;;;30.37;12.80;;;;;;;14.91;100.00;99588.23;1675576;85;27665;-64
2021/08/15 04:03:45;;;;;;;49.15;12.88;;;;;;;15.03;100.00;99591.94;1675361;85;20957;-63
2021/08/15 04:06:20;;;;;;;17.37;10.80;;;;;;;15.10;100.00;99587.02;1675328;85;20945;-64
2021/08/15 04:08:40;;;;;;;30.68;11.80;;;;;;;15.21;100.00;99585.02;1675895;85;21459;-65
2021/08/15 04:11:08;;;;;;;26.77;11.30;;;;;;;15.30;100.00;99582.52;1675710;85;20839;-65
2021/08/15 04:13:36;;;;;;;17.50;10.95;;;;;;;15.39;100.00;99584.88;1656545;85;20890;-66
2021/08/15 04:16:05;;;;;;;16.50;9.70;;;;;;;15.50;100.00;99585.58;1675416;85;21008;-64
2021/08/15 04:18:31;;;;;;;28.02;11.20;;;;;;;15.61;100.00;99580.34;1642192;86;20972;-65
2021/08/15 04:20:58;;;;;;;29.05;10.25;;;;;;;15.72;100.00;99585.12;1642118;87;20921;-63
2021/08/15 04:23:26;;;;;;;18.15;11.05;;;;;;;15.84;100.00;99575.50;1675395;85;21093;-66
2021/08/15 04:25:53;;;;;;;27.90;11.15;;;;;;;16.00;100.00;99577.50;1675502;85;20914;-65
2021/08/15 04:28:21;;;;;;;25.05;10.98;;;;;;;16.15;100.00;99587.34;1675766;84;20890;-65
2021/08/15 04:30:47;;;;;;;23.87;11.25;;;;;;;16.29;100.00;99591.48;1675627;84;20922;-64
2021/08/15 04:33:18;;;;;;;21.87;11.10;;;;;;;16.43;100.00;99584.25;1675658;85;21013;-65
2021/08/15 04:35:42;;;;;;;23.45;12.10;;;;;;;16.53;100.00;99582.52;1675525;85;21134;-64
2021/08/15 04:38:09;;;;;;;29.67;11.95;;;;;;;16.64;100.00;99584.79;1675386;85;20862;-64
2021/08/15 04:40:36;;;;;;;23.02;10.50;;;;;;;16.83;100.00;99587.53;1675382;85;20913;-65
2021/08/15 04:43:03;;;;;;;24.07;11.28;;;;;;;17.07;100.00;99583.34;1675727;85;20882;-66
2021/08/15 04:45:29;;;;;;;23.77;10.88;;;;;;;17.20;100.00;99585.03;1675565;84;20882;-65
2021/08/15 04:47:56;;;;;;;18.90;10.63;;;;;;;17.32;100.00;99584.84;1675544;85;21833;-64
2021/08/15 04:50:23;;;;;;;23.92;10.70;;;;;;;17.47;100.00;99583.77;1675466;85;21456;-63
2021/08/15 04:52:49;;;;;;;24.23;10.40;;;;;;;17.58;100.00;99587.09;1675572;85;21439;-63
2021/08/15 04:55:16;;;;;;;19.60;9.80;;;;;;;17.82;100.00;99590.23;1675492;84;21414;-63
2021/08/15 04:57:43;;;;;;;17.32;8.13;;;;;;;18.05;100.00;99589.20;1675586;84;21361;-65
2021/08/15 05:00:12;;;;;;;18.45;8.65;;;;;;;18.14;100.00;99587.40;1675691;85;21042;-64
2021/08/15 05:02:41;;;;;;;13.03;8.33;;;;;;;18.28;100.00;99587.95;1675439;85;20858;-65
2021/08/15 05:05:09;;;;;;;12.78;7.50;;;;;;;18.43;100.00;99592.49;1675481;85;21443;-64
2021/08/15 05:07:35;;;;;;;;;;;;;;;18.62;100.00;99600.52;1644635;87;20973;-65
2021/08/15 05:10:03;;;;;;;11.25;7.37;;;;;;;18.82;100.00;99601.99;1675536;84;20124;-63
2021/08/15 05:12:29;;;;;;;23.20;8.07;;;;;;;19.08;100.00;99607.38;1656210;85;21356;-64
2021/08/15 05:15:01;;;;;;;12.28;7.55;;;;;;;19.24;100.00;99605.91;1675266;84;20989;-63
2021/08/15 05:17:27;;;;;;;11.73;7.45;;;;;;;19.37;100.00;99600.14;1645571;87;20956;-64
2021/08/15 05:19:54;;;;;;;13.40;7.55;;;;;;;19.49;100.00;99605.25;1642138;86;21016;-64
2021/08/15 05:22:20;;;;;;;14.68;7.40;;;;;;;19.56;100.00;99605.37;1642359;86;20938;-64
2021/08/15 05:24:47;;;;;;;45.50;8.88;;;;;;;19.76;100.00;99603.50;1675536;84;21472;-65
2021/08/15 05:27:15;;;;;;;;;;;;;;;19.82;100.00;99602.25;1677895;84;21404;-63
2021/08/15 05:29:41;;;;;;;16.95;8.15;;;;;;;19.96;100.00;99603.49;1675401;84;20100;-65
2021/08/15 05:32:08;;;;;;;13.80;8.18;;;;;;;20.24;100.00;99601.35;1642131;87;20885;-64
2021/08/15 05:34:34;;;;;;;17.87;10.35;;;;;;;20.31;100.00;99604.98;1642234;86;20984;-64
2021/08/15 05:37:01;;;;;;;20.77;12.37;;;;;;;20.46;100.00;99602.36;1623994;87;21698;-65
2021/08/15 05:39:28;;;;;;;17.52;10.43;;;;;;;20.62;100.00;99604.87;1642106;86;20904;-64
2021/08/15 05:41:56;;;;;;;26.30;9.03;;;;;;;20.68;100.00;99606.91;1642193;86;21414;-66
2021/08/15 05:44:23;;;;;;;23.73;9.73;;;;;;;20.83;100.00;99594.72;1675439;85;20866;-64
2021/08/15 05:46:51;;;;;;;14.50;8.35;;;;;;;20.92;100.00;99600.42;1675431;85;21305;-64
2021/08/15 05:49:17;;;;;;;16.42;7.78;;;;;;;21.07;100.00;99597.76;1675617;84;21432;-65
2021/08/15 05:51:44;;;;;;;15.30;7.70;;;;;;;21.39;100.00;99595.66;1675522;84;21435;-65
2021/08/15 05:54:10;;;;;;;27.48;6.87;;;;;;;21.66;100.00;99600.48;1688247;83;21360;-64
2021/08/15 05:56:37;;;;;;;13.62;7.50;;;;;;;21.69;100.00;99598.45;1700648;83;21507;-66
2021/08/15 05:59:05;;;;;;;14.45;6.78;;;;;;;21.72;100.00;99593.12;1703773;84;20871;-66
2021/08/15 06:01:33;;;;;;;24.92;8.13;;;;;;;21.69;100.00;99588.33;1703857;83;21748;-66
2021/08/15 06:04:01;;;;;;;;;;;;;;;22.21;100.00;99592.77;1689296;84;20907;-65
2021/08/15 06:06:28;;;;;;;13.70;6.97;;;;;;;22.59;98.66;99594.63;1703673;84;20416;-65
2021/08/15 06:08:55;;;;;;;22.98;7.45;;;;;;;22.67;97.07;99595.92;1703669;83;21018;-65
2021/08/15 06:11:22;;;;;;;15.95;7.30;;;;;;;22.77;95.82;99598.83;1703368;83;20918;-65
2021/08/15 06:13:50;;;;;;;15.33;6.83;;;;;;;23.14;96.36;99605.86;1703801;84;21384;-66
2021/08/15 06:16:18;;;;;;;11.68;5.83;;;;;;;23.31;94.47;99612.53;1703504;84;20874;-66
2021/08/15 06:18:47;;;;;;;14.40;6.50;;;;;;;23.53;91.11;99606.44;1703508;84;21372;-66
2021/08/15 06:21:13;;;;;;;13.22;6.25;;;;;;;23.54;86.61;99610.77;1690122;83;21467;-66
2021/08/15 06:23:40;;;;;;;13.70;6.40;;;;;;;23.67;83.72;99608.88;1683672;84;20943;-65
2021/08/15 06:26:15;;;;;;;13.45;5.92;;;;;;;24.15;81.56;99609.48;1682925;85;21472;-63
2021/08/15 06:28:39;;;;;;;21.30;6.42;;;;;;;24.45;79.10;99613.36;1697540;83;21367;-63
2021/08/15 06:31:07;;;;;;;25.68;6.90;;;;;;;24.63;77.28;99607.64;1705911;83;20979;-64
2021/08/15 06:33:33;;;;;;;11.65;5.70;;;;;;;24.69;78.53;99607.61;1699123;83;21005;-65
2021/08/15 06:36:00;;;;;;;7.62;5.33;;;;;;;24.80;76.71;99609.53;1721335;82;21351;-63
2021/08/15 06:38:27;;;;;;;14.27;5.50;;;;;;;24.68;74.33;99607.40;1716822;83;21193;-64
2021/08/15 06:40:53;;;;;;;11.65;5.47;;;;;;;24.86;72.22;99603.80;1713082;82;20944;-64
2021/08/15 06:43:20;;;;;;;7.45;4.97;;;;;;;24.81;70.11;99602.88;1715343;81;21021;-63
2021/08/15 06:45:47;;;;;;;12.68;5.55;;;;;;;25.03;71.03;99604.29;1710496;81;20930;-63
2021/08/15 06:48:13;;;;;;;9.85;4.95;;;;;;;25.22;68.84;99607.00;1730917;81;21461;-64
2021/08/15 06:50:40;;;;;;;8.35;4.95;;;;;;;25.17;66.10;99599.02;1728961;83;21186;-64
2021/08/15 06:53:08;;;;;;;13.38;5.30;;;;;;;25.14;66.69;99602.44;1729601;81;20928;-64
2021/08/15 06:55:35;;;;;;;11.15;5.58;;;;;;;24.99;66.61;99602.63;1743443;81;21068;-64
2021/08/15 06:58:02;;;;;;;11.93;4.65;;;;;;;25.27;63.58;99601.83;1736586;81;20924;-63
2021/08/15 07:00:28;;;;;;;17.82;5.70;;;;;;;25.50;63.56;99602.83;1698438;83;21401;-65
2021/08/15 07:02:55;;;;;;;15.95;5.97;;;;;;;25.61;66.48;99603.13;1725722;83;21266;-64
2021/08/15 07:05:21;;;;;;;8.83;5.15;;;;;;;26.21;67.66;99606.59;1717152;83;21464;-64
2021/08/15 07:07:48;;;;;;;16.02;5.65;;;;;;;26.43;61.47;99598.80;1728380;81;21489;-64
2021/08/15 07:10:16;;;;;;;22.30;5.47;;;;;;;26.58;61.74;99602.70;1722050;81;20874;-64
2021/08/15 07:12:43;;;;;;;16.87;5.67;;;;;;;26.51;58.68;99602.75;1709289;81;21325;-65
2021/08/15 07:15:14;;;;;;;9.60;5.53;;;;;;;26.59;61.00;99599.59;1716645;83;21126;-64
2021/08/15 07:17:41;;;;;;;13.03;4.80;;;;;;;26.17;59.34;99609.05;1711715;83;21052;-65
2021/08/15 07:20:09;;;;;;;9.45;4.60;;;;;;;26.09;60.56;99608.88;1718120;83;20996;-64
2021/08/15 07:22:35;;;;;;;11.85;4.55;;;;;;;26.02;59.20;99601.03;1718004;82;21403;-64
2021/08/15 07:25:03;;;;;;;9.65;4.65;;;;;;;26.41;59.11;99599.19;1718264;83;20869;-66
2021/08/15 07:27:31;;;;;;;7.17;4.22;;;;;;;26.40;57.99;99583.81;1704753;83;21938;-64
2021/08/15 07:29:58;;;;;;;21.42;6.00;;;;;;;26.29;57.97;99598.72;1703498;83;21009;-65
2021/08/15 07:32:25;;;;;;;8.53;5.15;;;;;;;26.46;58.74;99600.86;1703055;83;20977;-65
2021/08/15 07:34:51;;;;;;;20.65;6.00;;;;;;;26.85;57.26;99607.79;1703266;84;20925;-65
2021/08/15 07:37:18;;;;;;;9.53;4.28;;;;;;;26.82;56.65;99603.02;1702652;84;20914;-62
2021/08/15 07:39:44;;;;;;;10.32;4.20;;;;;;;26.82;57.25;99618.95;1705839;83;21100;-65
2021/08/15 07:42:12;;;;;;;9.58;5.22;;;;;;;26.91;54.53;99614.62;1688827;83;20875;-64
2021/08/15 07:44:41;;;;;;;9.55;4.22;;;;;;;26.79;56.57;99612.01;1717991;82;20955;-65
2021/08/15 07:47:08;;;;;;;10.75;5.20;;;;;;;26.88;57.93;99613.39;1707728;83;20989;-64
2021/08/15 07:49:41;;;;;;;10.75;4.78;;;;;;;26.57;57.07;99615.67;1717740;82;21056;-65
2021/08/15 07:52:08;;;;;;;18.50;5.30;;;;;;;26.79;56.14;99605.13;1717883;82;21142;-64
2021/08/15 07:54:34;;;;;;;9.15;5.00;;;;;;;26.70;57.03;99599.81;1718024;82;21497;-64
2021/08/15 07:57:13;;;;;;;8.78;4.72;;;;;;;26.88;56.18;99600.20;1717738;83;20912;-64
2021/08/15 07:59:39;;;;;;;7.92;4.47;;;;;;;26.78;56.83;99610.39;1693150;84;20822;-64
2021/08/15 08:02:06;;;;;;;8.93;4.60;;;;;;;26.82;57.19;99607.94;1656264;85;20985;-65
2021/08/15 08:04:33;;;;;;;8.63;5.10;;;;;;;27.30;54.76;99609.12;1679829;85;21050;-63
2021/08/15 08:07:03;;;;;;;6.47;3.87;;;;;;;26.96;54.78;99611.58;1679196;85;20897;-64
2021/08/15 08:09:33;;;;;;;10.23;5.60;;;;;;;26.94;53.72;99602.88;1683622;84;20920;-65
2021/08/15 08:11:59;;;;;;;10.13;4.40;;;;;;;27.18;55.10;99599.61;1686275;84;20901;-65
2021/08/15 08:14:25;;;;;;;9.20;4.80;;;;;;;27.04;54.58;99594.02;1683804;85;21124;-63
2021/08/15 08:16:52;;;;;;;16.35;5.58;;;;;;;27.28;54.24;99595.70;1698740;83;21108;-65
2021/08/15 08:19:19;;;;;;;17.20;5.87;;;;;;;27.71;54.42;99592.92;1698650;83;21049;-64
2021/08/15 08:21:45;;;;;;;15.80;4.92;;;;;;;27.55;52.55;99592.44;1686683;83;21465;-64
2021/08/15 08:24:12;;;;;;;8.33;4.87;;;;;;;27.75;53.50;99589.63;1683188;83;21055;-65
2021/08/15 08:26:38;;;;;;;13.28;5.22;;;;;;;27.91;52.18;99587.56;1681779;83;21504;-64
2021/08/15 08:29:05;;;;;;;10.18;4.47;;;;;;;28.20;51.61;99590.77;1674470;85;21143;-67
2021/08/15 08:31:32;;;;;;;8.00;4.55;;;;;;;28.30;50.90;99586.58;1697398;82;21327;-65
2021/08/15 08:33:58;;;;;;;53.70;7.53;;;;;;;27.92;49.86;99589.14;1698673;83;21052;-67
2021/08/15 08:36:25;;;;;;;7.17;5.17;;;;;;;27.95;49.64;99584.84;1721795;81;21446;-66
2021/08/15 08:38:52;;;;;;;13.65;5.17;;;;;;;28.07;50.35;99587.98;1712941;82;21059;-64
2021/08/15 08:41:20;;;;;;;12.95;5.58;;;;;;;28.22;50.41;99587.03;1725038;82;21057;-65
2021/08/15 08:43:47;;;;;;;11.57;4.78;;;;;;;28.18;46.82;99577.33;1710137;83;21425;-66
2021/08/15 08:46:13;;;;;;;9.53;5.33;;;;;;;28.34;47.39;99584.05;1701177;83;21546;-65
2021/08/15 08:48:40;;;;;;;8.65;4.95;;;;;;;28.39;49.80;99587.89;1692456;84;21538;-66
2021/08/15 08:51:07;;;;;;;11.08;4.33;;;;;;;28.68;48.39;99590.26;1699021;83;26482;-64
2021/08/15 08:53:35;;;;;;;13.60;4.92;;;;;;;28.48;49.12;99581.32;1704014;83;21066;-65
2021/08/15 08:56:03;;;;;;;10.38;5.28;;;;;;;28.59;47.99;99561.53;1702991;83;21023;-66
2021/08/15 08:58:29;;;;;;;10.68;5.20;;;;;;;28.33;49.63;99582.47;1702750;83;20889;-66
2021/08/15 09:00:56;;;;;;;9.95;4.75;;;;;;;28.62;49.33;99579.55;1704612;83;21000;-66
2021/08/15 09:03:24;;;;;;;16.23;4.95;;;;;;;28.41;48.14;99573.11;1705794;83;20978;-66
2021/08/15 09:05:53;;;;;;;10.80;4.60;;;;;;;28.84;49.08;99578.44;1707166;82;21117;-65
2021/08/15 09:08:28;;;;;;;8.33;4.62;;;;;;;28.81;47.49;99581.37;1711721;83;20923;-66
2021/08/15 09:11:11;;;;;;;6.58;3.87;;;;;;;28.75;46.91;99571.81;1708852;83;20901;-66
2021/08/15 09:13:39;;;;;;;8.73;4.92;;;;;;;29.09;47.16;99574.60;1711478;82;21331;-65
2021/08/15 09:16:07;;;;;;;5.95;4.97;;;;;;;29.00;47.53;99566.56;1713588;83;21454;-66
2021/08/15 09:18:34;;;;;;;5.85;4.50;;;;;;;28.84;47.70;99561.86;1712785;82;21088;-66
2021/08/15 09:21:02;;;;;;;11.55;4.87;;;;;;;28.87;47.32;99563.86;1728579;82;20916;-66
2021/08/15 09:23:32;;;;;;;8.57;4.70;;;;;;;29.28;46.13;99560.59;1716594;82;20865;-66
2021/08/15 09:26:19;;;;;;;8.90;5.05;;;;;;;29.17;47.38;99562.44;1703352;83;20996;-66
2021/08/15 09:28:48;;;;;;;9.03;5.30;;;;;;;28.94;46.06;99559.80;1702297;83;20965;-66
2021/08/15 09:31:35;;;;;;;6.60;4.22;;;;;;;28.79;48.17;99556.09;1702015;84;21126;-65
2021/08/15 09:34:01;;;;;;;5.92;4.50;;;;;;;29.17;47.17;99558.89;1708179;83;20877;-66
2021/08/15 09:36:42;;;;;;;8.75;4.67;;;;;;;29.03;46.73;99556.73;1710009;83;21415;-65
2021/08/15 09:39:08;;;;;;;7.87;4.53;;;;;;;28.89;49.39;99551.07;1714555;81;20962;-66
2021/08/15 09:41:37;;;;;;;9.63;4.87;;;;;;;29.26;46.34;99548.33;1687794;83;20944;-65
2021/08/15 09:44:29;;;;;;;13.58;5.53;;;;;;;28.68;48.55;99540.55;1713863;83;21520;-66
2021/08/15 09:47:12;;;;;;;11.38;5.50;;;;;;;29.17;46.49;99537.56;1687864;83;20980;-66
2021/08/15 09:49:47;;;;;;;17.20;5.87;;;;;;;29.36;46.23;99531.04;1725649;81;20955;-66
2021/08/15 09:52:18;;;;;;;9.45;5.33;;;;;;;29.36;46.50;99531.04;1704600;81;21510;-66
2021/08/15 09:54:54;;;;;;;7.47;4.83;;;;;;;29.54;47.22;99528.42;1702031;84;20961;-66
2021/08/15 09:57:33;;;;;;;9.60;5.33;;;;;;;29.37;46.75;99525.70;1697738;82;21064;-66
2021/08/15 10:00:10;;;;;;;8.80;5.65;;;;;;;29.31;45.71;99516.19;1740187;81;20890;-65
2021/08/15 10:02:40;;;;;;;7.30;5.30;;;;;;;29.67;45.06;99520.67;1752081;81;20989;-66
2021/08/15 10:05:07;;;;;;;8.00;5.37;;;;;;;29.69;44.43;99516.91;1687861;81;20950;-66
2021/08/15 10:07:34;;;;;;;11.35;5.35;;;;;;;29.69;43.60;99510.00;1753761;81;21427;-66
2021/08/15 10:10:01;;;;;;;11.55;5.35;;;;;;;29.87;42.70;99518.44;1714756;81;21149;-67
2021/08/15 10:12:29;;;;;;;8.10;4.80;;;;;;;29.78;42.09;99522.91;1733130;81;20800;-67
2021/08/15 10:14:57;;;;;;;7.42;5.42;;;;;;;30.30;42.62;99513.95;1734152;81;21594;-66
2021/08/15 10:17:28;;;;;;;6.45;4.87;;;;;;;30.28;43.13;99510.81;1744989;81;20975;-66
2021/08/15 10:20:02;;;;;;;9.08;4.78;;;;;;;29.50;43.19;99508.27;1715701;81;20970;-66
2021/08/15 10:22:31;;;;;;;10.10;5.37;;;;;;;29.36;43.31;99502.61;1725369;81;20880;-67
2021/08/15 10:25:04;;;;;;;7.92;4.62;;;;;;;30.04;44.07;99501.16;1750865;81;20926;-66
2021/08/15 10:27:47;;;;;;;10.93;5.65;;;;;;;30.14;42.73;99485.79;1739572;81;20920;-64
2021/08/15 10:30:24;;;;;;;7.97;5.05;;;;;;;29.98;43.61;99496.36;1740363;81;21485;-66
2021/08/15 10:33:05;;;;;;;13.10;5.17;;;;;;;29.78;43.10;99490.31;1745388;81;21016;-65
2021/08/15 10:35:32;;;;;;;6.97;5.00;;;;;;;29.53;44.39;99489.52;1740145;81;21125;-65
2021/08/15 10:38:06;;;;;;;8.75;5.83;;;;;;;29.69;43.78;99481.77;1732825;81;20987;-65
2021/08/15 10:40:47;;;;;;;13.90;5.08;;;;;;;29.68;44.48;99474.64;1746704;81;20892;-65
2021/08/15 10:43:30;;;;;;;10.18;5.65;;;;;;;29.84;45.03;99484.61;1742677;81;20908;-65
2021/08/15 10:46:22;;;;;;;11.48;5.42;;;;;;;30.19;43.12;99484.63;1734377;81;21001;-66
2021/08/15 10:49:00;;;;;;;9.58;5.40;;;;;;;30.30;41.74;99476.59;1732407;81;21851;-64
2021/08/15 10:51:49;;;;;;;7.83;5.20;;;;;;;30.03;42.48;99468.33;1729448;81;20891;-65
2021/08/15 10:54:33;;;;;;;8.60;5.60;;;;;;;29.99;42.99;99466.94;1730282;81;21002;-64
2021/08/15 10:57:03;;;;;;;7.70;4.85;;;;;;;30.00;43.01;99471.28;1734887;81;20887;-65
2021/08/15 10:59:42;;;;;;;9.50;5.25;;;;;;;30.24;42.13;99464.28;1738401;81;20941;-65
2021/08/15 11:02:17;;;;;;;11.70;4.87;;;;;;;30.32;41.65;99461.77;1727808;81;21086;-63
2021/08/15 11:04:58;;;;;;;10.38;5.60;;;;;;;29.83;42.93;99460.31;1696668;83;20915;-66
2021/08/15 11:07:41;;;;;;;7.17;5.17;;;;;;;30.28;43.18;99465.13;1727959;83;20963;-65
2021/08/15 11:10:12;;;;;;;10.95;5.72;;;;;;;30.16;42.21;99452.98;1740122;81;21406;-66
2021/08/15 11:13:16;;;;;;;13.45;5.45;;;;;;;30.63;43.34;99455.95;1728829;81;20885;-65
2021/08/15 11:15:44;;;;;;;6.08;5.08;;;;;;;30.62;42.62;99456.52;1728552;81;20941;-64
2021/08/15 11:18:14;;;;;;;9.30;5.00;;;;;;;30.63;42.72;99441.51;1735070;81;20924;-65
2021/08/15 11:20:52;;;;;;;9.13;5.45;;;;;;;30.64;42.53;99437.54;1741143;81;21383;-65
2021/08/15 11:23:21;;;;;;;9.20;5.03;;;;;;;30.74;42.19;99449.23;1742262;81;20907;-65
2021/08/15 11:25:48;;;;;;;7.97;4.87;;;;;;;30.86;41.91;99444.55;1707546;81;20951;-65
2021/08/15 11:28:16;;;;;;;11.15;5.45;;;;;;;30.81;41.88;99435.99;1736856;81;23298;-65
2021/08/15 11:30:43;;;;;;;8.80;4.80;;;;;;;31.07;43.02;99443.19;1729336;81;20949;-65